sensor_id;sensor_type;location;lat;lon;timestamp;P1;durP1;ratioP1;P2;durP2;ratioP2
61709;SDS011;47633;51.494;5.386;2023-04-01T00:00:28;2.63;;;0.80;;
61709;SDS011;47633;51.494;5.386;2023-04-01T00:02:54;2.53;;;0.70;;
61709;SDS011;47633;51.494;5.386;2023-04-01T00:05:20;3.85;;;0.80;;
61709;SDS011;47633;51.494;5.386;2023-04-01T00:07:46;3.28;;;0.85;;
61709;SDS011;47633;51.494;5.386;2023-04-01T00:10:11;3.88;;;1.00;;
61709;SDS011;47633;51.494;5.386;2023-04-01T00:12:37;3.33;;;0.88;;
61709;SDS011;47633;51.494;5.386;2023-04-01T00:15:04;2.78;;;0.75;;
61709;SDS011;47633;51.494;5.386;2023-04-01T00:17:31;2.88;;;0.80;;
61709;SDS011;47633;51.494;5.386;2023-04-01T00:19:57;3.42;;;0.90;;
61709;SDS011;47633;51.494;5.386;2023-04-01T00:22:23;3.50;;;1.00;;
61709;SDS011;47633;51.494;5.386;2023-04-01T00:24:48;2.53;;;0.63;;
61709;SDS011;47633;51.494;5.386;2023-04-01T00:27:14;2.47;;;0.90;;
61709;SDS011;47633;51.494;5.386;2023-04-01T00:29:43;2.88;;;0.70;;
61709;SDS011;47633;51.494;5.386;2023-04-01T00:32:10;1.83;;;0.65;;
61709;SDS011;47633;51.494;5.386;2023-04-01T00:34:35;2.05;;;0.70;;
61709;SDS011;47633;51.494;5.386;2023-04-01T00:37:01;2.53;;;0.70;;
61709;SDS011;47633;51.494;5.386;2023-04-01T00:39:30;3.38;;;0.90;;
61709;SDS011;47633;51.494;5.386;2023-04-01T00:41:56;2.92;;;0.93;;
61709;SDS011;47633;51.494;5.386;2023-04-01T00:44:24;3.03;;;0.90;;
61709;SDS011;47633;51.494;5.386;2023-04-01T00:46:55;2.33;;;0.70;;
61709;SDS011;47633;51.494;5.386;2023-04-01T00:49:25;2.92;;;0.80;;
61709;SDS011;47633;51.494;5.386;2023-04-01T00:52:02;2.90;;;0.80;;
61709;SDS011;47633;51.494;5.386;2023-04-01T00:54:30;3.50;;;1.00;;
61709;SDS011;47633;51.494;5.386;2023-04-01T00:56:57;2.28;;;0.70;;
61709;SDS011;47633;51.494;5.386;2023-04-01T00:59:30;3.10;;;0.80;;
61709;SDS011;47633;51.494;5.386;2023-04-01T01:01:58;2.53;;;0.70;;
61709;SDS011;47633;51.494;5.386;2023-04-01T01:04:27;3.17;;;0.80;;
61709;SDS011;47633;51.494;5.386;2023-04-01T01:06:56;2.47;;;0.68;;
61709;SDS011;47633;51.494;5.386;2023-04-01T01:12:54;3.05;;;0.80;;
61709;SDS011;47633;51.494;5.386;2023-04-01T01:15:25;2.95;;;0.85;;
61709;SDS011;47633;51.494;5.386;2023-04-01T01:37:40;2.38;;;0.98;;
61709;SDS011;47633;51.494;5.386;2023-04-01T01:40:09;2.22;;;0.73;;
61709;SDS011;47633;51.494;5.386;2023-04-01T01:42:37;1.65;;;0.70;;
61709;SDS011;47633;51.494;5.386;2023-04-01T01:45:05;2.85;;;0.90;;
61709;SDS011;47633;51.494;5.386;2023-04-01T01:47:32;2.28;;;0.70;;
61709;SDS011;47633;51.494;5.386;2023-04-01T01:49:59;3.05;;;0.80;;
61709;SDS011;47633;51.494;5.386;2023-04-01T01:52:26;2.55;;;0.70;;
61709;SDS011;47633;51.494;5.386;2023-04-01T01:54:54;2.40;;;0.73;;
61709;SDS011;47633;51.494;5.386;2023-04-01T01:57:23;1.65;;;0.60;;
61709;SDS011;47633;51.494;5.386;2023-04-01T01:59:52;2.60;;;0.80;;
61709;SDS011;47633;51.494;5.386;2023-04-01T02:02:22;2.90;;;0.70;;
61709;SDS011;47633;51.494;5.386;2023-04-01T02:04:50;1.58;;;0.68;;
61709;SDS011;47633;51.494;5.386;2023-04-01T02:07:21;1.65;;;0.60;;
61709;SDS011;47633;51.494;5.386;2023-04-01T02:09:52;2.25;;;0.77;;
61709;SDS011;47633;51.494;5.386;2023-04-01T02:12:18;2.50;;;1.33;;
61709;SDS011;47633;51.494;5.386;2023-04-01T02:14:53;2.45;;;0.90;;
61709;SDS011;47633;51.494;5.386;2023-04-01T02:17:24;1.20;;;0.60;;
61709;SDS011;47633;51.494;5.386;2023-04-01T02:22:29;2.03;;;0.80;;
61709;SDS011;47633;51.494;5.386;2023-04-01T02:24:59;2.28;;;1.00;;
61709;SDS011;47633;51.494;5.386;2023-04-01T02:27:29;2.22;;;1.00;;
61709;SDS011;47633;51.494;5.386;2023-04-01T02:29:55;2.63;;;1.00;;
61709;SDS011;47633;51.494;5.386;2023-04-01T02:32:21;2.60;;;1.02;;
61709;SDS011;47633;51.494;5.386;2023-04-01T02:34:47;2.70;;;1.02;;
61709;SDS011;47633;51.494;5.386;2023-04-01T02:37:14;3.28;;;1.02;;
61709;SDS011;47633;51.494;5.386;2023-04-01T02:39:40;3.55;;;1.10;;
61709;SDS011;47633;51.494;5.386;2023-04-01T02:42:07;3.35;;;1.20;;
61709;SDS011;47633;51.494;5.386;2023-04-01T02:44:32;1.95;;;1.00;;
61709;SDS011;47633;51.494;5.386;2023-04-01T02:46:58;1.88;;;0.90;;
61709;SDS011;47633;51.494;5.386;2023-04-01T02:49:23;4.25;;;1.30;;
61709;SDS011;47633;51.494;5.386;2023-04-01T02:51:48;2.42;;;1.10;;
61709;SDS011;47633;51.494;5.386;2023-04-01T02:54:14;2.25;;;1.15;;
61709;SDS011;47633;51.494;5.386;2023-04-01T02:56:39;3.42;;;1.30;;
61709;SDS011;47633;51.494;5.386;2023-04-01T02:59:05;2.70;;;1.15;;
61709;SDS011;47633;51.494;5.386;2023-04-01T03:01:30;2.65;;;1.30;;
61709;SDS011;47633;51.494;5.386;2023-04-01T03:03:55;2.92;;;1.30;;
61709;SDS011;47633;51.494;5.386;2023-04-01T03:06:21;3.70;;;1.40;;
61709;SDS011;47633;51.494;5.386;2023-04-01T03:08:46;3.00;;;1.40;;
61709;SDS011;47633;51.494;5.386;2023-04-01T03:11:12;2.97;;;1.17;;
61709;SDS011;47633;51.494;5.386;2023-04-01T03:13:37;2.53;;;1.10;;
61709;SDS011;47633;51.494;5.386;2023-04-01T03:16:03;2.88;;;1.17;;
61709;SDS011;47633;51.494;5.386;2023-04-01T03:18:29;2.83;;;1.30;;
61709;SDS011;47633;51.494;5.386;2023-04-01T03:20:54;2.47;;;1.25;;
61709;SDS011;47633;51.494;5.386;2023-04-01T03:23:20;2.45;;;1.17;;
61709;SDS011;47633;51.494;5.386;2023-04-01T03:25:46;2.80;;;1.13;;
61709;SDS011;47633;51.494;5.386;2023-04-01T03:28:12;2.53;;;1.15;;
61709;SDS011;47633;51.494;5.386;2023-04-01T03:30:38;2.70;;;1.27;;
61709;SDS011;47633;51.494;5.386;2023-04-01T03:33:03;2.15;;;1.10;;
61709;SDS011;47633;51.494;5.386;2023-04-01T03:35:29;2.92;;;1.10;;
61709;SDS011;47633;51.494;5.386;2023-04-01T03:37:55;2.75;;;1.20;;
61709;SDS011;47633;51.494;5.386;2023-04-01T03:40:20;2.35;;;1.05;;
61709;SDS011;47633;51.494;5.386;2023-04-01T03:42:46;3.10;;;1.25;;
61709;SDS011;47633;51.494;5.386;2023-04-01T03:45:12;2.95;;;1.00;;
61709;SDS011;47633;51.494;5.386;2023-04-01T03:47:38;2.65;;;1.20;;
61709;SDS011;47633;51.494;5.386;2023-04-01T03:50:04;2.75;;;1.17;;
61709;SDS011;47633;51.494;5.386;2023-04-01T03:52:30;2.85;;;1.20;;
61709;SDS011;47633;51.494;5.386;2023-04-01T03:54:55;3.60;;;1.15;;
61709;SDS011;47633;51.494;5.386;2023-04-01T03:57:21;3.08;;;1.00;;
61709;SDS011;47633;51.494;5.386;2023-04-01T03:59:46;2.13;;;1.00;;
61709;SDS011;47633;51.494;5.386;2023-04-01T04:02:11;1.92;;;0.98;;
61709;SDS011;47633;51.494;5.386;2023-04-01T04:04:37;2.50;;;1.17;;
61709;SDS011;47633;51.494;5.386;2023-04-01T04:07:02;2.17;;;0.93;;
61709;SDS011;47633;51.494;5.386;2023-04-01T04:09:29;1.33;;;0.80;;
61709;SDS011;47633;51.494;5.386;2023-04-01T04:11:55;3.30;;;1.17;;
61709;SDS011;47633;51.494;5.386;2023-04-01T04:14:20;1.77;;;0.80;;
61709;SDS011;47633;51.494;5.386;2023-04-01T04:16:46;2.20;;;1.00;;
61709;SDS011;47633;51.494;5.386;2023-04-01T04:19:11;1.52;;;0.80;;
61709;SDS011;47633;51.494;5.386;2023-04-01T04:21:36;1.83;;;0.95;;
61709;SDS011;47633;51.494;5.386;2023-04-01T04:24:01;1.60;;;0.90;;
61709;SDS011;47633;51.494;5.386;2023-04-01T04:26:27;3.05;;;0.93;;
61709;SDS011;47633;51.494;5.386;2023-04-01T04:28:53;2.03;;;0.90;;
61709;SDS011;47633;51.494;5.386;2023-04-01T04:31:19;2.60;;;1.02;;
61709;SDS011;47633;51.494;5.386;2023-04-01T04:33:45;2.47;;;0.98;;
61709;SDS011;47633;51.494;5.386;2023-04-01T04:36:11;1.88;;;0.90;;
61709;SDS011;47633;51.494;5.386;2023-04-01T04:38:36;2.28;;;0.90;;
61709;SDS011;47633;51.494;5.386;2023-04-01T04:41:01;2.65;;;0.98;;
61709;SDS011;47633;51.494;5.386;2023-04-01T04:43:26;3.08;;;0.90;;
61709;SDS011;47633;51.494;5.386;2023-04-01T04:45:52;2.67;;;0.80;;
61709;SDS011;47633;51.494;5.386;2023-04-01T04:48:17;1.67;;;0.90;;
61709;SDS011;47633;51.494;5.386;2023-04-01T04:50:46;1.95;;;0.80;;
61709;SDS011;47633;51.494;5.386;2023-04-01T04:53:13;1.60;;;0.80;;
61709;SDS011;47633;51.494;5.386;2023-04-01T04:55:47;1.75;;;0.80;;
61709;SDS011;47633;51.494;5.386;2023-04-01T04:58:13;1.50;;;0.80;;
61709;SDS011;47633;51.494;5.386;2023-04-01T05:00:39;3.15;;;0.70;;
61709;SDS011;47633;51.494;5.386;2023-04-01T05:03:05;1.38;;;0.70;;
61709;SDS011;47633;51.494;5.386;2023-04-01T05:05:31;1.25;;;0.70;;
61709;SDS011;47633;51.494;5.386;2023-04-01T05:07:56;1.65;;;0.68;;
61709;SDS011;47633;51.494;5.386;2023-04-01T05:10:21;1.17;;;0.70;;
61709;SDS011;47633;51.494;5.386;2023-04-01T05:12:47;0.73;;;0.60;;
61709;SDS011;47633;51.494;5.386;2023-04-01T05:15:12;1.77;;;0.60;;
61709;SDS011;47633;51.494;5.386;2023-04-01T05:17:38;0.55;;;0.47;;
61709;SDS011;47633;51.494;5.386;2023-04-01T05:20:04;1.30;;;0.60;;
61709;SDS011;47633;51.494;5.386;2023-04-01T05:22:30;1.05;;;0.60;;
61709;SDS011;47633;51.494;5.386;2023-04-01T05:24:55;0.77;;;0.50;;
61709;SDS011;47633;51.494;5.386;2023-04-01T05:27:20;1.05;;;0.60;;
61709;SDS011;47633;51.494;5.386;2023-04-01T05:29:46;1.35;;;0.60;;
61709;SDS011;47633;51.494;5.386;2023-04-01T05:32:11;0.98;;;0.50;;
61709;SDS011;47633;51.494;5.386;2023-04-01T05:34:36;1.15;;;0.60;;
61709;SDS011;47633;51.494;5.386;2023-04-01T05:37:02;0.60;;;0.40;;
61709;SDS011;47633;51.494;5.386;2023-04-01T05:39:27;1.10;;;0.50;;
61709;SDS011;47633;51.494;5.386;2023-04-01T05:41:53;0.70;;;0.40;;
61709;SDS011;47633;51.494;5.386;2023-04-01T05:44:18;1.30;;;0.50;;
61709;SDS011;47633;51.494;5.386;2023-04-01T05:46:43;0.82;;;0.40;;
61709;SDS011;47633;51.494;5.386;2023-04-01T05:49:09;0.90;;;0.40;;
61709;SDS011;47633;51.494;5.386;2023-04-01T05:51:34;0.82;;;0.52;;
61709;SDS011;47633;51.494;5.386;2023-04-01T05:53:59;0.93;;;0.50;;
61709;SDS011;47633;51.494;5.386;2023-04-01T05:56:25;0.68;;;0.40;;
61709;SDS011;47633;51.494;5.386;2023-04-01T05:58:51;0.77;;;0.50;;
61709;SDS011;47633;51.494;5.386;2023-04-01T06:01:18;0.40;;;0.40;;
61709;SDS011;47633;51.494;5.386;2023-04-01T06:03:43;0.82;;;0.40;;
61709;SDS011;47633;51.494;5.386;2023-04-01T06:06:16;1.05;;;0.50;;
61709;SDS011;47633;51.494;5.386;2023-04-01T06:08:48;1.17;;;0.50;;
61709;SDS011;47633;51.494;5.386;2023-04-01T06:24:48;1.20;;;0.50;;
61709;SDS011;47633;51.494;5.386;2023-04-01T06:27:40;1.48;;;0.50;;
61709;SDS011;47633;51.494;5.386;2023-04-01T06:33:08;0.80;;;0.50;;
61709;SDS011;47633;51.494;5.386;2023-04-01T06:35:48;0.70;;;0.50;;
61709;SDS011;47633;51.494;5.386;2023-04-01T06:46:59;1.45;;;0.60;;
61709;SDS011;47633;51.494;5.386;2023-04-01T06:49:44;1.75;;;0.60;;
61709;SDS011;47633;51.494;5.386;2023-04-01T06:55:23;3.78;;;0.73;;
61709;SDS011;47633;51.494;5.386;2023-04-01T06:57:53;1.48;;;0.80;;
61709;SDS011;47633;51.494;5.386;2023-04-01T07:03:14;1.77;;;0.70;;
61709;SDS011;47633;51.494;5.386;2023-04-01T07:05:46;1.25;;;0.65;;
61709;SDS011;47633;51.494;5.386;2023-04-01T07:08:22;1.52;;;0.60;;
61709;SDS011;47633;51.494;5.386;2023-04-01T07:11:06;1.35;;;0.60;;
61709;SDS011;47633;51.494;5.386;2023-04-01T07:21:43;1.65;;;0.70;;
61709;SDS011;47633;51.494;5.386;2023-04-01T07:24:21;3.20;;;0.90;;
61709;SDS011;47633;51.494;5.386;2023-04-01T07:26:52;1.70;;;0.90;;
61709;SDS011;47633;51.494;5.386;2023-04-01T07:29:20;1.50;;;0.75;;
61709;SDS011;47633;51.494;5.386;2023-04-01T07:31:49;1.25;;;0.60;;
61709;SDS011;47633;51.494;5.386;2023-04-01T07:53:34;6.57;;;1.92;;
61709;SDS011;47633;51.494;5.386;2023-04-01T07:56:08;8.30;;;2.17;;
61709;SDS011;47633;51.494;5.386;2023-04-01T07:58:51;5.35;;;1.50;;
61709;SDS011;47633;51.494;5.386;2023-04-01T08:07:26;4.55;;;1.70;;
61709;SDS011;47633;51.494;5.386;2023-04-01T08:09:56;6.05;;;1.90;;
61709;SDS011;47633;51.494;5.386;2023-04-01T08:12:47;5.65;;;2.00;;
61709;SDS011;47633;51.494;5.386;2023-04-01T08:15:28;5.47;;;1.97;;
61709;SDS011;47633;51.494;5.386;2023-04-01T08:20:36;4.45;;;1.48;;
61709;SDS011;47633;51.494;5.386;2023-04-01T08:23:12;5.73;;;1.87;;
61709;SDS011;47633;51.494;5.386;2023-04-01T08:25:48;7.90;;;2.08;;
61709;SDS011;47633;51.494;5.386;2023-04-01T08:28:33;4.28;;;1.75;;
61709;SDS011;47633;51.494;5.386;2023-04-01T08:33:39;4.32;;;1.77;;
61709;SDS011;47633;51.494;5.386;2023-04-01T08:36:08;5.93;;;2.17;;
61709;SDS011;47633;51.494;5.386;2023-04-01T08:38:39;7.35;;;1.83;;
61709;SDS011;47633;51.494;5.386;2023-04-01T08:47:03;6.03;;;1.80;;
61709;SDS011;47633;51.494;5.386;2023-04-01T08:50:00;6.00;;;1.60;;
61709;SDS011;47633;51.494;5.386;2023-04-01T08:58:06;5.22;;;1.75;;
61709;SDS011;47633;51.494;5.386;2023-04-01T09:01:31;5.90;;;1.60;;
61709;SDS011;47633;51.494;5.386;2023-04-01T09:10:24;5.85;;;1.65;;
61709;SDS011;47633;51.494;5.386;2023-04-01T09:20:55;4.55;;;1.70;;
61709;SDS011;47633;51.494;5.386;2023-04-01T09:23:33;5.05;;;1.95;;
61709;SDS011;47633;51.494;5.386;2023-04-01T09:54:13;5.90;;;1.50;;
61709;SDS011;47633;51.494;5.386;2023-04-01T09:57:00;4.07;;;1.52;;
61709;SDS011;47633;51.494;5.386;2023-04-01T09:59:45;3.92;;;1.40;;
61709;SDS011;47633;51.494;5.386;2023-04-01T10:05:33;3.13;;;1.33;;
61709;SDS011;47633;51.494;5.386;2023-04-01T10:22:53;5.13;;;1.60;;
61709;SDS011;47633;51.494;5.386;2023-04-01T10:25:29;10.32;;;1.60;;
61709;SDS011;47633;51.494;5.386;2023-04-01T10:36:30;5.95;;;1.70;;
61709;SDS011;47633;51.494;5.386;2023-04-01T11:12:39;5.20;;;1.90;;
61709;SDS011;47633;51.494;5.386;2023-04-01T11:18:29;8.23;;;1.67;;
61709;SDS011;47633;51.494;5.386;2023-04-01T11:21:16;5.00;;;1.60;;
61709;SDS011;47633;51.494;5.386;2023-04-01T11:33:03;5.55;;;1.90;;
61709;SDS011;47633;51.494;5.386;2023-04-01T11:35:33;5.40;;;1.83;;
61709;SDS011;47633;51.494;5.386;2023-04-01T11:38:17;4.40;;;1.92;;
61709;SDS011;47633;51.494;5.386;2023-04-01T11:46:39;6.88;;;1.80;;
61709;SDS011;47633;51.494;5.386;2023-04-01T11:57:46;5.55;;;1.75;;
61709;SDS011;47633;51.494;5.386;2023-04-01T12:00:22;3.63;;;1.60;;
61709;SDS011;47633;51.494;5.386;2023-04-01T12:03:14;5.43;;;1.80;;
61709;SDS011;47633;51.494;5.386;2023-04-01T12:05:53;5.15;;;1.83;;
61709;SDS011;47633;51.494;5.386;2023-04-01T12:14:11;8.60;;;1.67;;
61709;SDS011;47633;51.494;5.386;2023-04-01T12:16:46;3.70;;;1.30;;
61709;SDS011;47633;51.494;5.386;2023-04-01T12:35:46;2.33;;;1.33;;
61709;SDS011;47633;51.494;5.386;2023-04-01T12:44:37;3.33;;;1.40;;
61709;SDS011;47633;51.494;5.386;2023-04-01T12:55:50;3.10;;;1.60;;
61709;SDS011;47633;51.494;5.386;2023-04-01T13:07:14;3.25;;;1.52;;
61709;SDS011;47633;51.494;5.386;2023-04-01T13:09:57;3.60;;;1.50;;
61709;SDS011;47633;51.494;5.386;2023-04-01T13:15:30;3.78;;;1.55;;
61709;SDS011;47633;51.494;5.386;2023-04-01T13:32:25;3.08;;;1.40;;
61709;SDS011;47633;51.494;5.386;2023-04-01T13:35:16;3.60;;;1.55;;
61709;SDS011;47633;51.494;5.386;2023-04-01T13:38:04;5.00;;;1.60;;
61709;SDS011;47633;51.494;5.386;2023-04-01T13:40:40;3.80;;;1.52;;
61709;SDS011;47633;51.494;5.386;2023-04-01T13:43:16;5.75;;;1.50;;
61709;SDS011;47633;51.494;5.386;2023-04-01T13:48:33;3.67;;;1.55;;
61709;SDS011;47633;51.494;5.386;2023-04-01T13:51:14;4.68;;;1.80;;
61709;SDS011;47633;51.494;5.386;2023-04-01T13:54:33;4.78;;;1.40;;
61709;SDS011;47633;51.494;5.386;2023-04-01T13:59:57;3.78;;;1.42;;
61709;SDS011;47633;51.494;5.386;2023-04-01T14:02:31;3.60;;;1.50;;
61709;SDS011;47633;51.494;5.386;2023-04-01T14:05:36;6.05;;;1.55;;
61709;SDS011;47633;51.494;5.386;2023-04-01T14:13:47;4.40;;;1.90;;
61709;SDS011;47633;51.494;5.386;2023-04-01T14:16:24;3.03;;;1.40;;
61709;SDS011;47633;51.494;5.386;2023-04-01T14:22:22;2.95;;;1.30;;
61709;SDS011;47633;51.494;5.386;2023-04-01T14:24:46;6.20;;;1.60;;
61709;SDS011;47633;51.494;5.386;2023-04-01T14:30:19;4.88;;;1.60;;
61709;SDS011;47633;51.494;5.386;2023-04-01T14:39:01;4.43;;;1.58;;
61709;SDS011;47633;51.494;5.386;2023-04-01T14:41:46;3.75;;;1.40;;
61709;SDS011;47633;51.494;5.386;2023-04-01T14:47:14;7.10;;;1.40;;
61709;SDS011;47633;51.494;5.386;2023-04-01T14:49:51;2.65;;;1.10;;
61709;SDS011;47633;51.494;5.386;2023-04-01T14:52:23;5.55;;;1.40;;
61709;SDS011;47633;51.494;5.386;2023-04-01T14:54:53;3.95;;;1.27;;
61709;SDS011;47633;51.494;5.386;2023-04-01T14:57:23;3.50;;;1.30;;
61709;SDS011;47633;51.494;5.386;2023-04-01T15:05:32;3.55;;;1.30;;
61709;SDS011;47633;51.494;5.386;2023-04-01T15:18:44;4.90;;;1.20;;
61709;SDS011;47633;51.494;5.386;2023-04-01T15:21:19;5.45;;;1.70;;
61709;SDS011;47633;51.494;5.386;2023-04-01T15:24:09;8.40;;;2.17;;
61709;SDS011;47633;51.494;5.386;2023-04-01T15:26:52;14.23;;;3.63;;
61709;SDS011;47633;51.494;5.386;2023-04-01T15:40:59;53.65;;;18.10;;
61709;SDS011;47633;51.494;5.386;2023-04-01T15:43:46;43.00;;;17.00;;
61709;SDS011;47633;51.494;5.386;2023-04-01T15:46:25;39.55;;;14.93;;
61709;SDS011;47633;51.494;5.386;2023-04-01T16:02:39;32.72;;;11.35;;
61709;SDS011;47633;51.494;5.386;2023-04-01T16:17:25;21.58;;;8.23;;
61709;SDS011;47633;51.494;5.386;2023-04-01T16:19:52;19.17;;;8.07;;
61709;SDS011;47633;51.494;5.386;2023-04-01T16:22:40;21.92;;;8.48;;
61709;SDS011;47633;51.494;5.386;2023-04-01T16:25:17;19.45;;;7.50;;
61709;SDS011;47633;51.494;5.386;2023-04-01T16:27:56;18.98;;;6.82;;
61709;SDS011;47633;51.494;5.386;2023-04-01T16:33:04;17.00;;;6.88;;
61709;SDS011;47633;51.494;5.386;2023-04-01T16:35:58;20.40;;;7.38;;
61709;SDS011;47633;51.494;5.386;2023-04-01T16:38:33;14.10;;;5.95;;
61709;SDS011;47633;51.494;5.386;2023-04-01T16:41:07;17.27;;;5.75;;
61709;SDS011;47633;51.494;5.386;2023-04-01T16:51:46;12.27;;;4.32;;
61709;SDS011;47633;51.494;5.386;2023-04-01T16:56:55;15.13;;;4.47;;
61709;SDS011;47633;51.494;5.386;2023-04-01T16:59:35;14.23;;;4.78;;
61709;SDS011;47633;51.494;5.386;2023-04-01T17:04:38;11.57;;;4.68;;
61709;SDS011;47633;51.494;5.386;2023-04-01T17:12:44;11.57;;;4.05;;
61709;SDS011;47633;51.494;5.386;2023-04-01T17:16:13;7.65;;;3.40;;
61709;SDS011;47633;51.494;5.386;2023-04-01T17:26:31;11.00;;;3.47;;
61709;SDS011;47633;51.494;5.386;2023-04-01T17:29:06;7.57;;;2.75;;
61709;SDS011;47633;51.494;5.386;2023-04-01T17:31:46;7.35;;;2.75;;
61709;SDS011;47633;51.494;5.386;2023-04-01T17:37:04;8.25;;;3.00;;
61709;SDS011;47633;51.494;5.386;2023-04-01T17:42:21;9.20;;;3.30;;
61709;SDS011;47633;51.494;5.386;2023-04-01T17:45:00;8.40;;;2.78;;
61709;SDS011;47633;51.494;5.386;2023-04-01T17:47:42;6.55;;;2.90;;
61709;SDS011;47633;51.494;5.386;2023-04-01T18:15:04;6.63;;;2.42;;
61709;SDS011;47633;51.494;5.386;2023-04-01T18:17:53;7.32;;;2.10;;
61709;SDS011;47633;51.494;5.386;2023-04-01T18:20:37;7.00;;;2.65;;
61709;SDS011;47633;51.494;5.386;2023-04-01T18:23:23;5.50;;;1.98;;
61709;SDS011;47633;51.494;5.386;2023-04-01T18:28:59;6.65;;;1.90;;
61709;SDS011;47633;51.494;5.386;2023-04-01T18:31:37;6.05;;;2.25;;
61709;SDS011;47633;51.494;5.386;2023-04-01T18:37:17;5.38;;;2.10;;
61709;SDS011;47633;51.494;5.386;2023-04-01T18:39:50;5.47;;;1.80;;
61709;SDS011;47633;51.494;5.386;2023-04-01T18:45:17;5.63;;;1.85;;
61709;SDS011;47633;51.494;5.386;2023-04-01T18:47:50;7.43;;;2.28;;
61709;SDS011;47633;51.494;5.386;2023-04-01T18:50:36;4.75;;;1.98;;
61709;SDS011;47633;51.494;5.386;2023-04-01T18:55:46;4.75;;;1.90;;
61709;SDS011;47633;51.494;5.386;2023-04-01T18:58:23;5.32;;;1.80;;
61709;SDS011;47633;51.494;5.386;2023-04-01T19:09:16;4.53;;;1.85;;
61709;SDS011;47633;51.494;5.386;2023-04-01T19:11:54;8.00;;;2.22;;
61709;SDS011;47633;51.494;5.386;2023-04-01T19:14:46;5.25;;;1.80;;
61709;SDS011;47633;51.494;5.386;2023-04-01T19:17:20;4.75;;;1.90;;
61709;SDS011;47633;51.494;5.386;2023-04-01T19:19:55;3.78;;;1.70;;
61709;SDS011;47633;51.494;5.386;2023-04-01T19:31:38;4.20;;;1.60;;
61709;SDS011;47633;51.494;5.386;2023-04-01T19:39:33;4.50;;;1.70;;
61709;SDS011;47633;51.494;5.386;2023-04-01T19:45:17;6.45;;;1.80;;
61709;SDS011;47633;51.494;5.386;2023-04-01T19:47:54;3.42;;;1.67;;
61709;SDS011;47633;51.494;5.386;2023-04-01T19:50:36;4.68;;;1.98;;
61709;SDS011;47633;51.494;5.386;2023-04-01T19:53:28;3.70;;;1.65;;
61709;SDS011;47633;51.494;5.386;2023-04-01T19:56:07;3.83;;;1.70;;
61709;SDS011;47633;51.494;5.386;2023-04-01T19:58:59;4.18;;;1.75;;
61709;SDS011;47633;51.494;5.386;2023-04-01T20:01:35;3.95;;;1.50;;
61709;SDS011;47633;51.494;5.386;2023-04-01T20:04:21;2.70;;;1.30;;
61709;SDS011;47633;51.494;5.386;2023-04-01T20:07:10;5.40;;;2.00;;
61709;SDS011;47633;51.494;5.386;2023-04-01T20:09:53;5.55;;;1.60;;
61709;SDS011;47633;51.494;5.386;2023-04-01T20:18:02;3.97;;;1.52;;
61709;SDS011;47633;51.494;5.386;2023-04-01T20:20:37;3.90;;;1.70;;
61709;SDS011;47633;51.494;5.386;2023-04-01T20:25:51;4.35;;;1.70;;
61709;SDS011;47633;51.494;5.386;2023-04-01T20:28:43;5.05;;;1.60;;
61709;SDS011;47633;51.494;5.386;2023-04-01T20:31:29;4.32;;;1.48;;
61709;SDS011;47633;51.494;5.386;2023-04-01T20:34:09;5.50;;;1.52;;
61709;SDS011;47633;51.494;5.386;2023-04-01T20:43:07;5.80;;;2.03;;
61709;SDS011;47633;51.494;5.386;2023-04-01T20:46:07;2.97;;;1.50;;
61709;SDS011;47633;51.494;5.386;2023-04-01T20:51:35;4.55;;;1.65;;
61709;SDS011;47633;51.494;5.386;2023-04-01T20:54:19;3.92;;;1.80;;
61709;SDS011;47633;51.494;5.386;2023-04-01T21:05:30;4.28;;;1.50;;
61709;SDS011;47633;51.494;5.386;2023-04-01T21:10:59;5.20;;;1.70;;
61709;SDS011;47633;51.494;5.386;2023-04-01T21:45:19;10.18;;;1.63;;
61709;SDS011;47633;51.494;5.386;2023-04-01T22:05:11;4.05;;;1.70;;
61709;SDS011;47633;51.494;5.386;2023-04-01T22:13:23;4.38;;;1.42;;
61709;SDS011;47633;51.494;5.386;2023-04-01T22:24:10;4.30;;;1.55;;
61709;SDS011;47633;51.494;5.386;2023-04-01T22:29:35;2.78;;;1.55;;
61709;SDS011;47633;51.494;5.386;2023-04-01T22:32:32;3.00;;;1.60;;
61709;SDS011;47633;51.494;5.386;2023-04-01T22:43:45;2.88;;;1.50;;
61709;SDS011;47633;51.494;5.386;2023-04-01T22:48:47;2.72;;;1.50;;
61709;SDS011;47633;51.494;5.386;2023-04-01T22:56:28;2.92;;;1.60;;
61709;SDS011;47633;51.494;5.386;2023-04-01T22:59:04;4.05;;;1.90;;
61709;SDS011;47633;51.494;5.386;2023-04-01T23:01:39;3.58;;;2.00;;
61709;SDS011;47633;51.494;5.386;2023-04-01T23:04:08;3.08;;;1.63;;
61709;SDS011;47633;51.494;5.386;2023-04-01T23:06:41;4.07;;;1.70;;
61709;SDS011;47633;51.494;5.386;2023-04-01T23:09:15;3.38;;;1.67;;
61709;SDS011;47633;51.494;5.386;2023-04-01T23:11:56;3.95;;;1.83;;
61709;SDS011;47633;51.494;5.386;2023-04-01T23:22:16;3.10;;;1.80;;
61709;SDS011;47633;51.494;5.386;2023-04-01T23:28:14;3.22;;;1.80;;
61709;SDS011;47633;51.494;5.386;2023-04-01T23:33:26;3.60;;;1.90;;
61709;SDS011;47633;51.494;5.386;2023-04-01T23:35:55;4.93;;;1.60;;
61709;SDS011;47633;51.494;5.386;2023-04-01T23:38:41;3.33;;;1.70;;
61709;SDS011;47633;51.494;5.386;2023-04-01T23:44:10;2.80;;;1.42;;
61709;SDS011;47633;51.494;5.386;2023-04-01T23:46:38;3.22;;;1.90;;
61709;SDS011;47633;51.494;5.386;2023-04-01T23:49:06;2.70;;;1.60;;
61709;SDS011;47633;51.494;5.386;2023-04-01T23:51:46;3.00;;;1.70;;
61709;SDS011;47633;51.494;5.386;2023-04-01T23:54:23;3.20;;;1.70;;
61709;SDS011;47633;51.494;5.386;2023-04-01T23:56:54;2.70;;;1.55;;
61709;SDS011;47633;51.494;5.386;2023-04-01T23:59:27;2.75;;;1.60;;
